Time;durP1;ratioP1;P1;durP2;ratioP2;P2;SDS_P1;SDS_P2;PMS_P1;PMS_P2;Temp;Humidity;BMP_temperature;BMP_pressure;BME280_temperature;BME280_humidity;BME280_pressure;Samples;Min_cycle;Max_cycle;Signal;HPM_P1;HPM_P2
2023/03/08 00:00:04;;;;;;;5.97;1.83;;;;;;;;;;6303970;22;20039;-80
2023/03/08 00:02:30;;;;;;;4.93;1.60;;;;;;;;;;6276188;22;20024;-80
2023/03/08 00:04:56;;;;;;;4.60;1.98;;;;;;;;;;6301842;22;20668;-79
2023/03/08 00:07:23;;;;;;;4.35;1.52;;;;;;;;;;6276438;22;21249;-79
2023/03/08 00:09:51;;;;;;;4.10;1.70;;;;;;;;;;6276090;22;20483;-80
2023/03/08 00:12:18;;;;;;;4.97;1.85;;;;;;;;;;6302131;22;20062;-78
2023/03/08 00:14:45;;;;;;;4.00;1.88;;;;;;;;;;6300676;22;20123;-79
2023/03/08 00:17:11;;;;;;;3.97;1.65;;;;;;;;;;6303194;22;20030;-79
2023/03/08 00:19:38;;;;;;;4.35;1.90;;;;;;;;;;6303560;22;20038;-80
2023/03/08 00:22:04;;;;;;;4.07;1.70;;;;;;;;;;6303035;22;20016;-79
2023/03/08 00:24:30;;;;;;;4.70;1.73;;;;;;;;;;6274732;22;20524;-79
2023/03/08 00:26:57;;;;;;;9.02;2.30;;;;;;;;;;6303344;22;20546;-80
2023/03/08 00:29:23;;;;;;;5.93;2.00;;;;;;;;;;6275522;22;20030;-79
2023/03/08 00:31:49;;;;;;;4.50;1.98;;;;;;;;;;6275830;22;20035;-80
2023/03/08 00:34:16;;;;;;;7.50;2.30;;;;;;;;;;6300629;22;20089;-79
2023/03/08 00:36:42;;;;;;;4.90;1.90;;;;;;;;;;6302332;22;20710;-80
2023/03/08 00:39:13;;;;;;;5.05;2.28;;;;;;;;;;6302692;22;20028;-79
2023/03/08 00:41:39;;;;;;;5.43;2.03;;;;;;;;;;6302412;22;20445;-80
2023/03/08 00:44:06;;;;;;;5.45;2.50;;;;;;;;;;6301394;22;20020;-79
2023/03/08 00:46:32;;;;;;;5.55;2.38;;;;;;;;;;6302233;22;20098;-79
2023/03/08 00:48:59;;;;;;;6.47;2.53;;;;;;;;;;6302665;22;20032;-78
2023/03/08 00:51:25;;;;;;;7.80;2.53;;;;;;;;;;6301773;22;20034;-79
2023/03/08 00:53:52;;;;;;;8.98;2.83;;;;;;;;;;6275007;22;20020;-78
2023/03/08 00:56:18;;;;;;;6.43;3.17;;;;;;;;;;6301981;22;20023;-79
2023/03/08 00:58:44;;;;;;;8.07;3.15;;;;;;;;;;6302983;22;20027;-78
2023/03/08 01:01:13;;;;;;;9.70;3.33;;;;;;;;;;6302564;22;20495;-79
2023/03/08 01:03:39;;;;;;;7.95;3.67;;;;;;;;;;6301823;22;20035;-79
2023/03/08 01:06:07;;;;;;;7.13;3.80;;;;;;;;;;6302973;22;20567;-79
2023/03/08 01:08:34;;;;;;;8.25;3.92;;;;;;;;;;6302232;22;20070;-79
2023/03/08 01:11:01;;;;;;;8.88;3.67;;;;;;;;;;6275238;22;20024;-79
2023/03/08 01:13:31;;;;;;;9.38;4.28;;;;;;;;;;6300071;22;20008;-80
2023/03/08 01:15:58;;;;;;;8.35;3.85;;;;;;;;;;6276258;22;20055;-80
2023/03/08 01:18:25;;;;;;;8.18;4.63;;;;;;;;;;6302135;22;20078;-79
2023/03/08 01:20:58;;;;;;;10.18;5.03;;;;;;;;;;6302540;22;20016;-79
2023/03/08 01:23:25;;;;;;;9.43;4.68;;;;;;;;;;6300409;22;20024;-79
2023/03/08 01:25:59;;;;;;;10.77;4.72;;;;;;;;;;6274692;22;20008;-79
2023/03/08 01:28:25;;;;;;;11.77;5.32;;;;;;;;;;6302217;22;20047;-78
2023/03/08 01:30:52;;;;;;;14.55;6.10;;;;;;;;;;6301051;22;20460;-79
2023/03/08 01:33:19;;;;;;;10.95;5.70;;;;;;;;;;6300464;22;20028;-79
2023/03/08 01:35:46;;;;;;;12.38;6.00;;;;;;;;;;6301796;22;20082;-78
2023/03/08 01:38:12;;;;;;;12.00;6.43;;;;;;;;;;6302143;22;20110;-79
2023/03/08 01:40:39;;;;;;;12.75;6.80;;;;;;;;;;6301058;22;20024;-79
2023/03/08 01:43:25;;;;;;;11.73;6.00;;;;;;;;;;6300035;22;20043;-79
2023/03/08 01:45:54;;;;;;;14.43;6.63;;;;;;;;;;6274430;22;20108;-79
2023/03/08 01:48:25;;;;;;;14.05;6.55;;;;;;;;;;6300564;22;20107;-80
2023/03/08 01:50:52;;;;;;;13.60;6.70;;;;;;;;;;6300869;22;20424;-80
2023/03/08 01:53:18;;;;;;;13.85;6.97;;;;;;;;;;6299821;22;20436;-79
2023/03/08 01:55:44;;;;;;;19.17;7.13;;;;;;;;;;6300929;22;20054;-79
2023/03/08 01:58:12;;;;;;;13.43;7.30;;;;;;;;;;6273940;22;20012;-79
2023/03/08 02:00:38;;;;;;;16.38;7.32;;;;;;;;;;6300968;22;20027;-80
2023/03/08 02:03:07;;;;;;;15.73;8.00;;;;;;;;;;6298892;22;20058;-79
2023/03/08 02:05:35;;;;;;;16.60;7.75;;;;;;;;;;6301478;22;20054;-79
2023/03/08 02:08:01;;;;;;;11.75;7.07;;;;;;;;;;6300018;22;20051;-79
2023/03/08 02:10:28;;;;;;;15.13;7.85;;;;;;;;;;6301116;22;20026;-79
2023/03/08 02:12:54;;;;;;;15.00;7.65;;;;;;;;;;6299291;22;20023;-79
2023/03/08 02:15:21;;;;;;;16.67;8.57;;;;;;;;;;6302062;22;20020;-79
2023/03/08 02:17:47;;;;;;;16.88;9.25;;;;;;;;;;6301163;22;20034;-80
2023/03/08 02:20:14;;;;;;;19.15;9.70;;;;;;;;;;6300267;22;20028;-78
2023/03/08 02:22:41;;;;;;;26.63;10.98;;;;;;;;;;6302542;22;20093;-80
2023/03/08 02:25:17;;;;;;;21.20;9.77;;;;;;;;;;6301115;22;20038;-79
2023/03/08 02:27:44;;;;;;;15.57;9.25;;;;;;;;;;6300626;22;20024;-79
2023/03/08 02:30:11;;;;;;;16.70;9.88;;;;;;;;;;6272929;22;20719;-79
2023/03/08 02:32:38;;;;;;;17.40;9.85;;;;;;;;;;6300737;22;20045;-78
2023/03/08 02:35:05;;;;;;;18.27;10.00;;;;;;;;;;6299225;22;20059;-79
2023/03/08 02:37:32;;;;;;;17.05;9.90;;;;;;;;;;6301438;22;20023;-78
2023/03/08 02:39:58;;;;;;;19.80;9.73;;;;;;;;;;6302395;22;20032;-80
2023/03/08 02:42:25;;;;;;;20.13;10.82;;;;;;;;;;6301468;22;20070;-80
2023/03/08 02:44:51;;;;;;;19.42;11.55;;;;;;;;;;6299631;22;20078;-79
2023/03/08 02:47:17;;;;;;;18.17;11.48;;;;;;;;;;6301067;22;20024;-79
2023/03/08 02:49:44;;;;;;;20.27;11.10;;;;;;;;;;6302551;22;20090;-79
2023/03/08 02:52:10;;;;;;;20.20;11.10;;;;;;;;;;6300307;22;20059;-80
2023/03/08 02:54:37;;;;;;;23.17;11.80;;;;;;;;;;6301118;22;20099;-79
2023/03/08 02:57:03;;;;;;;19.77;11.48;;;;;;;;;;6300286;22;20046;-78
2023/03/08 02:59:29;;;;;;;23.60;12.20;;;;;;;;;;6300189;22;20031;-80
2023/03/08 03:01:56;;;;;;;25.92;12.68;;;;;;;;;;6300767;22;20028;-79
2023/03/08 03:04:23;;;;;;;25.38;13.00;;;;;;;;;;6272195;22;20027;-78
2023/03/08 03:06:49;;;;;;;21.30;12.20;;;;;;;;;;6300522;22;20453;-79
2023/03/08 03:09:15;;;;;;;21.45;12.88;;;;;;;;;;6273405;22;20026;-79
2023/03/08 03:11:42;;;;;;;27.52;14.20;;;;;;;;;;6300948;22;20012;-80
2023/03/08 03:14:08;;;;;;;20.70;12.77;;;;;;;;;;6299960;22;20020;-80
2023/03/08 03:16:35;;;;;;;27.13;13.20;;;;;;;;;;6300472;22;20024;-79
2023/03/08 03:19:01;;;;;;;23.02;12.70;;;;;;;;;;6298036;22;20062;-79
2023/03/08 03:21:28;;;;;;;23.60;12.80;;;;;;;;;;6299759;22;20027;-80
2023/03/08 03:23:55;;;;;;;23.27;13.25;;;;;;;;;;6298787;22;20030;-79
2023/03/08 03:26:22;;;;;;;27.48;14.63;;;;;;;;;;6299385;22;20830;-79
2023/03/08 03:28:51;;;;;;;31.95;13.70;;;;;;;;;;6300194;22;20073;-80
2023/03/08 03:31:18;;;;;;;37.95;15.93;;;;;;;;;;6299854;22;20476;-80
2023/03/08 03:33:45;;;;;;;31.75;15.95;;;;;;;;;;6298559;22;20050;-80
2023/03/08 03:36:14;;;;;;;36.00;16.85;;;;;;;;;;6300014;22;20031;-80
2023/03/08 03:38:40;;;;;;;41.80;18.13;;;;;;;;;;6272950;22;20028;-80
2023/03/08 03:41:08;;;;;;;65.05;18.70;;;;;;;;;;6299272;22;20058;-80
2023/03/08 03:43:35;;;;;;;48.72;18.90;;;;;;;;;;6299327;22;20030;-79
2023/03/08 03:46:02;;;;;;;49.85;20.23;;;;;;;;;;6300658;22;20066;-81
2023/03/08 03:48:29;;;;;;;48.65;19.42;;;;;;;;;;6301432;22;20131;-80
2023/03/08 03:50:56;;;;;;;54.83;20.27;;;;;;;;;;6300472;22;20027;-80
2023/03/08 03:53:23;;;;;;;43.90;18.90;;;;;;;;;;6299907;22;21149;-80
2023/03/08 03:55:50;;;;;;;52.50;19.33;;;;;;;;;;6273937;22;20020;-80
2023/03/08 03:58:16;;;;;;;50.45;18.98;;;;;;;;;;6301206;22;20063;-80
2023/03/08 04:00:42;;;;;;;52.72;19.15;;;;;;;;;;6300862;22;20103;-80
2023/03/08 04:03:09;;;;;;;48.15;19.95;;;;;;;;;;6272467;22;20034;-80
2023/03/08 04:05:35;;;;;;;47.20;18.98;;;;;;;;;;6300696;22;20103;-79
2023/03/08 04:08:02;;;;;;;62.67;21.77;;;;;;;;;;6301405;22;21086;-80
2023/03/08 04:10:30;;;;;;;60.65;21.98;;;;;;;;;;6301015;22;20035;-80
2023/03/08 04:12:56;;;;;;;72.20;22.25;;;;;;;;;;6300219;22;20866;-80
2023/03/08 04:15:22;;;;;;;68.65;22.85;;;;;;;;;;6274357;22;20026;-79
2023/03/08 04:17:49;;;;;;;73.90;23.52;;;;;;;;;;6300816;22;20032;-80
2023/03/08 04:20:16;;;;;;;95.60;24.17;;;;;;;;;;6300895;22;20119;-80
2023/03/08 04:22:42;;;;;;;101.10;24.55;;;;;;;;;;6301085;22;20022;-79
2023/03/08 04:25:09;;;;;;;80.35;25.83;;;;;;;;;;6300362;22;20764;-80
2023/03/08 04:27:35;;;;;;;80.95;25.88;;;;;;;;;;6301837;22;20016;-80
2023/03/08 04:30:02;;;;;;;79.93;25.08;;;;;;;;;;6300542;22;20015;-80
2023/03/08 04:32:32;;;;;;;79.07;26.55;;;;;;;;;;6301438;22;20102;-79
2023/03/08 04:34:58;;;;;;;90.65;27.63;;;;;;;;;;6299529;22;20024;-80
2023/03/08 04:37:25;;;;;;;100.93;27.98;;;;;;;;;;6302059;22;21159;-80
2023/03/08 04:39:51;;;;;;;69.95;26.13;;;;;;;;;;6302230;22;20472;-80
2023/03/08 04:42:17;;;;;;;71.97;25.17;;;;;;;;;;6301551;22;20026;-80
2023/03/08 04:44:44;;;;;;;66.88;24.88;;;;;;;;;;6300561;22;20103;-80
2023/03/08 04:47:10;;;;;;;68.35;24.13;;;;;;;;;;6302615;22;20026;-79
2023/03/08 04:49:36;;;;;;;77.85;25.23;;;;;;;;;;6302192;22;20024;-80
2023/03/08 04:52:03;;;;;;;59.15;21.92;;;;;;;;;;6303127;22;20495;-79
2023/03/08 04:54:29;;;;;;;71.35;24.70;;;;;;;;;;6301999;22;20020;-80
2023/03/08 04:56:56;;;;;;;69.05;25.98;;;;;;;;;;6302702;22;20058;-80
2023/03/08 04:59:22;;;;;;;66.45;24.35;;;;;;;;;;6302900;22;20067;-79
2023/03/08 05:01:48;;;;;;;71.45;24.58;;;;;;;;;;6302001;22;20102;-79
2023/03/08 05:04:15;;;;;;;87.15;25.60;;;;;;;;;;6300010;22;20046;-80
2023/03/08 05:06:41;;;;;;;94.70;24.20;;;;;;;;;;6301803;22;20085;-80
2023/03/08 05:09:08;;;;;;;101.32;25.88;;;;;;;;;;6301302;22;20102;-79
2023/03/08 05:11:34;;;;;;;66.68;25.25;;;;;;;;;;6302175;22;20041;-80
2023/03/08 05:14:00;;;;;;;75.47;24.70;;;;;;;;;;6274288;22;20023;-80
2023/03/08 05:16:27;;;;;;;87.10;26.88;;;;;;;;;;6274176;22;20111;-81
2023/03/08 05:18:53;;;;;;;111.68;27.42;;;;;;;;;;6277053;22;20031;-79
2023/03/08 05:21:20;;;;;;;127.10;26.70;;;;;;;;;;6274736;22;20097;-80
2023/03/08 05:23:47;;;;;;;136.50;25.63;;;;;;;;;;6300101;22;20107;-80
2023/03/08 05:26:14;;;;;;;152.73;26.55;;;;;;;;;;6302392;22;20118;-80
2023/03/08 05:28:41;;;;;;;137.05;25.85;;;;;;;;;;6301980;22;20106;-79
2023/03/08 05:31:17;;;;;;;107.50;24.35;;;;;;;;;;6301292;22;20095;-80
2023/03/08 05:33:45;;;;;;;119.78;26.25;;;;;;;;;;6299674;22;20022;-79
2023/03/08 05:36:12;;;;;;;172.10;28.38;;;;;;;;;;6301453;22;20091;-78
2023/03/08 05:38:38;;;;;;;131.45;26.67;;;;;;;;;;6301148;22;20055;-79
2023/03/08 05:41:06;;;;;;;116.93;26.38;;;;;;;;;;6274128;22;20062;-79
2023/03/08 05:43:33;;;;;;;144.23;26.65;;;;;;;;;;6301070;22;20035;-79
2023/03/08 05:46:01;;;;;;;153.75;28.52;;;;;;;;;;6301699;22;20019;-80
2023/03/08 05:48:28;;;;;;;175.45;28.55;;;;;;;;;;6300686;22;20024;-80
2023/03/08 05:50:55;;;;;;;112.18;28.42;;;;;;;;;;6301811;22;20103;-80
2023/03/08 05:53:21;;;;;;;135.68;28.40;;;;;;;;;;6299954;22;20023;-78
2023/03/08 05:55:48;;;;;;;106.95;27.52;;;;;;;;;;6302440;22;20047;-79
2023/03/08 05:58:14;;;;;;;151.10;31.55;;;;;;;;;;6301709;22;20115;-79
2023/03/08 06:00:40;;;;;;;171.35;30.73;;;;;;;;;;6302554;22;20106;-80
2023/03/08 06:03:07;;;;;;;95.93;29.05;;;;;;;;;;6272951;22;20034;-79
2023/03/08 06:05:33;;;;;;;161.85;29.88;;;;;;;;;;6275951;22;20024;-80
2023/03/08 06:08:00;;;;;;;186.70;32.63;;;;;;;;;;6301219;22;20026;-80
2023/03/08 06:10:26;;;;;;;124.50;29.95;;;;;;;;;;6275369;22;20027;-80
2023/03/08 06:12:52;;;;;;;144.38;30.30;;;;;;;;;;6274473;22;20487;-78
2023/03/08 06:15:19;;;;;;;106.82;28.17;;;;;;;;;;6275791;22;20450;-79
2023/03/08 06:17:45;;;;;;;111.13;30.10;;;;;;;;;;6303487;22;20078;-80
2023/03/08 06:20:11;;;;;;;115.65;30.38;;;;;;;;;;6302496;22;20078;-80
2023/03/08 06:22:38;;;;;;;127.30;30.15;;;;;;;;;;6302754;22;20126;-80
2023/03/08 06:25:04;;;;;;;164.75;32.50;;;;;;;;;;6300799;22;20030;-78
2023/03/08 06:27:30;;;;;;;104.57;27.38;;;;;;;;;;6303583;22;20731;-80
2023/03/08 06:29:57;;;;;;;163.95;31.50;;;;;;;;;;6302151;22;20024;-79
2023/03/08 06:32:23;;;;;;;188.40;33.17;;;;;;;;;;6274407;22;20071;-78
2023/03/08 06:34:50;;;;;;;124.65;29.70;;;;;;;;;;6300526;22;20019;-79
2023/03/08 06:37:16;;;;;;;109.35;28.98;;;;;;;;;;6304161;22;20062;-79
2023/03/08 06:39:42;;;;;;;98.03;29.65;;;;;;;;;;6301953;22;20461;-81
2023/03/08 06:42:09;;;;;;;117.85;29.88;;;;;;;;;;6302611;22;20106;-81
2023/03/08 06:44:35;;;;;;;111.45;28.65;;;;;;;;;;6300558;22;20028;-80
2023/03/08 06:47:05;;;;;;;94.63;28.60;;;;;;;;;;6275173;22;20034;-80
2023/03/08 06:49:31;;;;;;;116.78;28.77;;;;;;;;;;6304493;22;20035;-81
2023/03/08 06:51:57;;;;;;;101.43;28.30;;;;;;;;;;6303281;22;20034;-81
2023/03/08 06:54:24;;;;;;;177.05;32.63;;;;;;;;;;6302128;22;20030;-81
2023/03/08 06:56:50;;;;;;;99.72;30.20;;;;;;;;;;6302024;22;20379;-80
2023/03/08 06:59:16;;;;;;;108.30;29.35;;;;;;;;;;6303733;22;20107;-81
2023/03/08 07:01:43;;;;;;;100.00;27.38;;;;;;;;;;6302829;22;20020;-80
2023/03/08 07:04:09;;;;;;;90.15;27.27;;;;;;;;;;6301002;22;20028;-79
2023/03/08 07:06:35;;;;;;;82.30;29.48;;;;;;;;;;6302899;22;20866;-81
2023/03/08 07:09:03;;;;;;;98.18;29.33;;;;;;;;;;6302480;22;20034;-80
2023/03/08 07:11:31;;;;;;;91.28;28.70;;;;;;;;;;6303433;22;20034;-80
2023/03/08 07:13:58;;;;;;;89.93;28.40;;;;;;;;;;6275080;22;20139;-80
2023/03/08 07:16:24;;;;;;;79.53;28.10;;;;;;;;;;6276803;22;20027;-81
2023/03/08 07:18:50;;;;;;;97.55;27.92;;;;;;;;;;6302965;22;20034;-81
2023/03/08 07:21:17;;;;;;;89.90;28.17;;;;;;;;;;6302519;22;20058;-80
2023/03/08 07:23:43;;;;;;;100.30;28.55;;;;;;;;;;6302887;22;20466;-81
2023/03/08 07:26:10;;;;;;;96.20;29.00;;;;;;;;;;6302933;22;20559;-81
2023/03/08 07:28:36;;;;;;;92.80;28.33;;;;;;;;;;6303619;22;20519;-80
2023/03/08 07:31:03;;;;;;;102.10;29.50;;;;;;;;;;6277484;22;20031;-80
2023/03/08 07:33:29;;;;;;;93.38;29.48;;;;;;;;;;6302395;22;20908;-81
2023/03/08 07:35:57;;;;;;;102.40;29.63;;;;;;;;;;6276879;22;20067;-81
2023/03/08 07:38:24;;;;;;;87.95;28.27;;;;;;;;;;6301300;22;20094;-81
2023/03/08 07:40:54;;;;;;;84.60;28.52;;;;;;;;;;6301554;22;20012;-82
2023/03/08 07:43:22;;;;;;;84.65;27.02;;;;;;;;;;6274259;22;20122;-79
2023/03/08 07:45:48;;;;;;;83.60;29.05;;;;;;;;;;6276037;22;20020;-80
2023/03/08 07:48:14;;;;;;;78.50;27.88;;;;;;;;;;6276512;22;20979;-80
2023/03/08 07:50:41;;;;;;;96.93;28.27;;;;;;;;;;6303511;22;20046;-81
2023/03/08 07:53:07;;;;;;;105.18;30.00;;;;;;;;;;6299777;22;20496;-80
2023/03/08 07:55:35;;;;;;;93.95;27.95;;;;;;;;;;6274391;22;20615;-80
2023/03/08 07:58:01;;;;;;;83.97;29.30;;;;;;;;;;6303993;22;20590;-80
2023/03/08 08:00:28;;;;;;;85.80;29.33;;;;;;;;;;6276243;22;20024;-81
2023/03/08 08:02:54;;;;;;;92.10;29.60;;;;;;;;;;6302034;22;20008;-80
2023/03/08 08:05:20;;;;;;;92.20;28.77;;;;;;;;;;6305406;22;20023;-79
2023/03/08 08:07:47;;;;;;;91.30;29.55;;;;;;;;;;6302936;22;20063;-82
2023/03/08 08:10:14;;;;;;;109.18;31.23;;;;;;;;;;6304389;22;20471;-81
2023/03/08 08:12:40;;;;;;;100.32;30.13;;;;;;;;;;6304323;22;20019;-79
2023/03/08 08:15:07;;;;;;;98.80;29.60;;;;;;;;;;6275133;22;20063;-80
2023/03/08 08:17:33;;;;;;;100.47;29.52;;;;;;;;;;6277391;22;20023;-81
2023/03/08 08:19:59;;;;;;;123.80;31.10;;;;;;;;;;6305286;22;20020;-81
2023/03/08 08:22:26;;;;;;;87.30;27.85;;;;;;;;;;6305323;22;20015;-81
2023/03/08 08:24:52;;;;;;;102.63;27.73;;;;;;;;;;6303647;22;20019;-81
2023/03/08 08:27:18;;;;;;;93.90;26.48;;;;;;;;;;6305064;22;20122;-82
2023/03/08 08:29:48;;;;;;;79.18;24.48;;;;;;;;;;6304320;22;20026;-80
2023/03/08 08:32:14;;;;;;;81.95;25.23;;;;;;;;;;6275895;22;20027;-81
2023/03/08 08:34:41;;;;;;;77.03;25.02;;;;;;;;;;6302312;22;20062;-80
2023/03/08 08:37:07;;;;;;;77.90;25.02;;;;;;;;;;6277451;22;20095;-80
2023/03/08 08:39:33;;;;;;;80.97;25.60;;;;;;;;;;6307530;22;20049;-81
2023/03/08 08:42:00;;;;;;;75.85;25.50;;;;;;;;;;6303794;22;20055;-80
2023/03/08 08:44:26;;;;;;;78.97;25.65;;;;;;;;;;6302443;22;20016;-80
2023/03/08 08:46:53;;;;;;;80.88;25.98;;;;;;;;;;6303045;22;20028;-81
2023/03/08 08:49:19;;;;;;;81.93;25.88;;;;;;;;;;6276703;22;20067;-80
2023/03/08 08:51:45;;;;;;;64.70;23.48;;;;;;;;;;6302674;22;20427;-81
2023/03/08 08:54:12;;;;;;;88.40;27.10;;;;;;;;;;6273995;22;20020;-81
2023/03/08 08:56:41;;;;;;;76.05;24.42;;;;;;;;;;6301484;22;20122;-81
2023/03/08 08:59:09;;;;;;;76.93;24.15;;;;;;;;;;6299660;22;20062;-81
2023/03/08 09:01:38;;;;;;;69.43;26.05;;;;;;;;;;6300469;22;20508;-80
2023/03/08 09:04:05;;;;;;;74.13;23.88;;;;;;;;;;6299990;22;20024;-81
2023/03/08 09:06:31;;;;;;;70.68;24.20;;;;;;;;;;6304807;22;20103;-79
2023/03/08 09:08:58;;;;;;;73.10;25.10;;;;;;;;;;6303602;22;20063;-80
2023/03/08 09:11:25;;;;;;;77.68;24.40;;;;;;;;;;6304014;22;20016;-81
2023/03/08 09:13:52;;;;;;;71.75;24.65;;;;;;;;;;6275201;22;20023;-80
2023/03/08 09:16:19;;;;;;;68.47;23.67;;;;;;;;;;6305328;22;20016;-81
2023/03/08 09:18:45;;;;;;;65.20;22.70;;;;;;;;;;6307451;22;20031;-80
2023/03/08 09:21:12;;;;;;;63.80;23.45;;;;;;;;;;6278746;22;20075;-81
2023/03/08 09:23:38;;;;;;;67.68;23.73;;;;;;;;;;6302821;22;20930;-80
2023/03/08 09:26:05;;;;;;;73.70;23.70;;;;;;;;;;6304800;22;20051;-79
2023/03/08 09:28:32;;;;;;;72.63;23.67;;;;;;;;;;6305648;22;20451;-80
2023/03/08 09:30:58;;;;;;;69.75;22.75;;;;;;;;;;6304845;22;20020;-79
2023/03/08 09:33:25;;;;;;;62.78;21.75;;;;;;;;;;6276497;22;20027;-79
2023/03/08 09:36:00;;;;;;;70.07;22.45;;;;;;;;;;6304823;22;20024;-79
2023/03/08 09:38:27;;;;;;;57.55;23.08;;;;;;;;;;6278339;22;20015;-79
2023/03/08 09:41:12;;;;;;;59.78;21.90;;;;;;;;;;6305332;22;20054;-79
2023/03/08 09:43:44;;;;;;;62.03;21.42;;;;;;;;;;6304258;22;20086;-81
2023/03/08 09:46:25;;;;;;;58.25;20.02;;;;;;;;;;6278714;22;20019;-80
2023/03/08 09:48:53;;;;;;;52.42;18.83;;;;;;;;;;6310079;22;20066;-80
2023/03/08 09:51:21;;;;;;;54.65;20.92;;;;;;;;;;6282258;22;20146;-81
2023/03/08 09:53:53;;;;;;;56.30;19.90;;;;;;;;;;6308829;22;20019;-80
2023/03/08 09:56:23;;;;;;;52.00;19.60;;;;;;;;;;6308413;22;20043;-80
2023/03/08 09:58:54;;;;;;;48.42;19.58;;;;;;;;;;6308538;22;20109;-81
2023/03/08 10:01:21;;;;;;;49.40;19.50;;;;;;;;;;6309441;22;20028;-80
2023/03/08 10:03:59;;;;;;;52.05;18.17;;;;;;;;;;6308739;22;20027;-80
2023/03/08 10:06:32;;;;;;;46.83;18.13;;;;;;;;;;6308912;22;20106;-81
2023/03/08 10:09:04;;;;;;;42.53;17.10;;;;;;;;;;6284083;22;20412;-82
2023/03/08 10:11:30;;;;;;;45.67;16.65;;;;;;;;;;6309971;22;20020;-79
2023/03/08 10:14:01;;;;;;;44.38;16.73;;;;;;;;;;6309862;22;20105;-81
2023/03/08 10:16:33;;;;;;;40.78;17.25;;;;;;;;;;6310550;22;20023;-80
2023/03/08 10:19:04;;;;;;;45.47;18.42;;;;;;;;;;6310162;22;20027;-83
2023/03/08 10:21:33;;;;;;;39.90;16.20;;;;;;;;;;6309416;22;20016;-80
2023/03/08 10:24:10;;;;;;;44.50;16.45;;;;;;;;;;6277899;22;20015;-80
2023/03/08 10:26:36;;;;;;;39.42;15.75;;;;;;;;;;6311300;22;20031;-80
2023/03/08 10:29:03;;;;;;;40.15;15.88;;;;;;;;;;6308431;22;20068;-79
2023/03/08 10:31:32;;;;;;;39.40;15.40;;;;;;;;;;6283894;22;20145;-82
2023/03/08 10:34:05;;;;;;;38.63;14.77;;;;;;;;;;6282251;22;20048;-80
2023/03/08 10:36:31;;;;;;;43.33;15.25;;;;;;;;;;6310330;22;20527;-80
2023/03/08 10:38:59;;;;;;;37.58;14.38;;;;;;;;;;6309736;22;20023;-80
2023/03/08 10:41:31;;;;;;;39.58;16.77;;;;;;;;;;6312435;22;20031;-81
2023/03/08 10:43:58;;;;;;;37.17;15.10;;;;;;;;;;6284384;22;20027;-80
2023/03/08 10:46:29;;;;;;;41.53;16.15;;;;;;;;;;6310547;22;20020;-79
2023/03/08 10:49:05;;;;;;;37.42;14.85;;;;;;;;;;6280238;22;20042;-81
2023/03/08 10:51:31;;;;;;;35.30;15.80;;;;;;;;;;6308151;22;20039;-80
2023/03/08 10:53:59;;;;;;;36.70;14.80;;;;;;;;;;6275542;22;20030;-81
2023/03/08 10:56:30;;;;;;;39.55;15.02;;;;;;;;;;6304938;22;20055;-80
2023/03/08 10:58:57;;;;;;;36.05;14.68;;;;;;;;;;6304791;22;20326;-80
2023/03/08 11:01:26;;;;;;;35.78;14.35;;;;;;;;;;6278592;22;20102;-79
2023/03/08 11:04:02;;;;;;;37.50;14.93;;;;;;;;;;6303569;22;20023;-80
2023/03/08 11:06:28;;;;;;;43.58;15.73;;;;;;;;;;6303338;22;20015;-80
2023/03/08 11:08:56;;;;;;;36.45;14.77;;;;;;;;;;6304768;22;20024;-80
2023/03/08 11:11:22;;;;;;;33.17;14.30;;;;;;;;;;6309054;22;20024;-81
2023/03/08 11:13:50;;;;;;;38.70;14.10;;;;;;;;;;6309653;22;20086;-80
2023/03/08 11:16:17;;;;;;;29.85;13.27;;;;;;;;;;6309878;22;20820;-82
2023/03/08 11:19:02;;;;;;;30.40;13.00;;;;;;;;;;6306270;22;20023;-80
2023/03/08 11:21:31;;;;;;;35.03;14.45;;;;;;;;;;6306696;22;20058;-81
2023/03/08 11:24:17;;;;;;;29.88;11.90;;;;;;;;;;6302903;22;20078;-80
2023/03/08 11:26:46;;;;;;;29.95;12.35;;;;;;;;;;6304627;22;20062;-80
2023/03/08 11:29:13;;;;;;;27.65;11.85;;;;;;;;;;6304564;22;20008;-78
2023/03/08 11:31:39;;;;;;;29.67;10.98;;;;;;;;;;6304548;22;20026;-80
2023/03/08 11:34:24;;;;;;;30.05;12.48;;;;;;;;;;6303503;22;20031;-79
2023/03/08 11:36:57;;;;;;;29.27;11.70;;;;;;;;;;6303846;22;20158;-80
2023/03/08 11:39:23;;;;;;;32.67;12.40;;;;;;;;;;6305642;22;20019;-80
2023/03/08 11:42:03;;;;;;;24.83;10.20;;;;;;;;;;6304276;22;20082;-78
2023/03/08 11:44:35;;;;;;;23.40;9.68;;;;;;;;;;6305239;22;20841;-79
2023/03/08 11:47:20;;;;;;;26.23;10.75;;;;;;;;;;6279858;22;20023;-79
2023/03/08 11:49:55;;;;;;;24.52;10.18;;;;;;;;;;6306419;22;20063;-80
2023/03/08 11:52:36;;;;;;;21.58;9.60;;;;;;;;;;6277406;22;20020;-79
2023/03/08 11:55:09;;;;;;;25.05;10.63;;;;;;;;;;6305442;22;20012;-79
2023/03/08 11:57:41;;;;;;;22.70;9.18;;;;;;;;;;6306770;22;20008;-79
2023/03/08 12:00:28;;;;;;;26.63;9.75;;;;;;;;;;6306669;22;20022;-79
2023/03/08 12:02:58;;;;;;;23.27;9.85;;;;;;;;;;6278549;22;20076;-79
2023/03/08 12:05:28;;;;;;;23.83;9.15;;;;;;;;;;6306295;22;20105;-80
2023/03/08 12:08:10;;;;;;;25.13;10.30;;;;;;;;;;6307834;22;20023;-78
2023/03/08 12:10:49;;;;;;;25.67;9.85;;;;;;;;;;6307825;22;20019;-79
2023/03/08 12:13:36;;;;;;;26.45;10.95;;;;;;;;;;6307089;22;20776;-80
2023/03/08 12:16:02;;;;;;;27.02;9.88;;;;;;;;;;6307050;22;20438;-80
2023/03/08 12:18:47;;;;;;;21.50;9.73;;;;;;;;;;6306775;22;20023;-81
2023/03/08 12:21:25;;;;;;;24.25;9.05;;;;;;;;;;6305254;22;20160;-79
2023/03/08 12:24:21;;;;;;;23.25;9.05;;;;;;;;;;6304018;22;20051;-79
2023/03/08 12:26:50;;;;;;;24.60;9.75;;;;;;;;;;6248422;22;20795;-81
2023/03/08 12:29:17;;;;;;;23.33;9.73;;;;;;;;;;6306617;22;20117;-79
2023/03/08 12:31:44;;;;;;;21.83;8.65;;;;;;;;;;6279852;22;20008;-79
2023/03/08 12:34:13;;;;;;;24.23;9.55;;;;;;;;;;6304080;22;20016;-79
2023/03/08 12:36:43;;;;;;;23.33;8.52;;;;;;;;;;6306077;22;20098;-79
2023/03/08 12:39:31;;;;;;;20.15;8.25;;;;;;;;;;6280455;22;20042;-79
2023/03/08 12:42:10;;;;;;;24.65;9.05;;;;;;;;;;6307930;22;20024;-79
2023/03/08 12:44:37;;;;;;;22.00;9.63;;;;;;;;;;6279456;22;20050;-81
2023/03/08 12:47:12;;;;;;;22.48;10.13;;;;;;;;;;6306533;22;20114;-79
2023/03/08 12:49:40;;;;;;;23.92;10.20;;;;;;;;;;6280402;22;20031;-81
2023/03/08 12:52:19;;;;;;;21.52;9.05;;;;;;;;;;6306354;22;21062;-80
2023/03/08 12:55:04;;;;;;;26.23;9.05;;;;;;;;;;6303863;22;20248;-79
2023/03/08 12:57:32;;;;;;;23.65;9.57;;;;;;;;;;6278705;22;20035;-79
2023/03/08 13:00:09;;;;;;;23.90;9.63;;;;;;;;;;6306872;22;20015;-79
2023/03/08 13:02:36;;;;;;;22.60;9.20;;;;;;;;;;6280289;22;20054;-79
2023/03/08 13:05:18;;;;;;;21.08;9.57;;;;;;;;;;6305531;22;20019;-79
2023/03/08 13:07:56;;;;;;;21.52;8.98;;;;;;;;;;6279447;22;20023;-79
2023/03/08 13:10:29;;;;;;;28.90;9.45;;;;;;;;;;6306389;22;20020;-79
2023/03/08 13:13:11;;;;;;;25.70;9.75;;;;;;;;;;6277802;22;20034;-79
2023/03/08 13:16:13;;;;;;;24.33;10.27;;;;;;;;;;6283581;22;20022;-80
2023/03/08 13:18:44;;;;;;;23.83;9.80;;;;;;;;;;6306171;22;20016;-79
2023/03/08 13:21:10;;;;;;;;;;;;;;;;;;6307133;22;20357;-80
2023/03/08 13:23:42;;;;;;;23.60;9.85;;;;;;;;;;6279222;22;42319;-79
2023/03/08 13:26:15;;;;;;;25.30;10.07;;;;;;;;;;6281322;22;20026;-81
2023/03/08 13:28:43;;;;;;;26.10;9.48;;;;;;;;;;6308852;22;20060;-79
2023/03/08 13:31:18;;;;;;;27.85;10.48;;;;;;;;;;6308990;22;20027;-80
2023/03/08 13:33:48;;;;;;;23.08;9.80;;;;;;;;;;6306373;22;20020;-78
2023/03/08 13:36:19;;;;;;;22.33;10.00;;;;;;;;;;6307682;22;20012;-80
2023/03/08 13:38:54;;;;;;;26.08;10.38;;;;;;;;;;6279733;22;20027;-79
2023/03/08 13:41:29;;;;;;;25.20;10.60;;;;;;;;;;6306923;22;20488;-79
2023/03/08 13:43:59;;;;;;;22.50;9.55;;;;;;;;;;6278109;22;20760;-79
2023/03/08 13:46:26;;;;;;;23.23;11.07;;;;;;;;;;6305882;22;20031;-79
2023/03/08 13:48:52;;;;;;;27.38;10.63;;;;;;;;;;6305777;22;20227;-81
2023/03/08 13:51:18;;;;;;;22.70;9.25;;;;;;;;;;6307152;22;20059;-79
2023/03/08 13:53:45;;;;;;;22.08;10.20;;;;;;;;;;6303280;22;20650;-79
2023/03/08 13:56:20;;;;;;;23.10;10.73;;;;;;;;;;6305640;22;20010;-79
2023/03/08 13:58:49;;;;;;;24.30;10.82;;;;;;;;;;6306020;22;20024;-78
2023/03/08 14:01:17;;;;;;;23.45;9.93;;;;;;;;;;6305039;22;20591;-78
2023/03/08 14:03:44;;;;;;;23.58;9.80;;;;;;;;;;6277043;22;20015;-79
2023/03/08 14:06:20;;;;;;;21.75;9.82;;;;;;;;;;6302907;22;20046;-80
2023/03/08 14:08:47;;;;;;;24.05;10.23;;;;;;;;;;6303307;22;20115;-79
2023/03/08 14:11:15;;;;;;;22.88;10.38;;;;;;;;;;6301072;22;20955;-80
2023/03/08 14:13:43;;;;;;;23.65;10.00;;;;;;;;;;6299051;22;20024;-79
2023/03/08 14:16:22;;;;;;;25.45;10.35;;;;;;;;;;6299401;22;20035;-79
2023/03/08 14:18:48;;;;;;;23.10;10.45;;;;;;;;;;6303221;22;20107;-79
2023/03/08 14:21:16;;;;;;;25.65;10.75;;;;;;;;;;6301330;22;20024;-79
2023/03/08 14:23:51;;;;;;;29.77;11.15;;;;;;;;;;6274038;22;20388;-79
2023/03/08 14:26:33;;;;;;;25.95;10.18;;;;;;;;;;6274291;22;20078;-79
2023/03/08 14:29:18;;;;;;;22.52;9.88;;;;;;;;;;6300004;22;20016;-79